sensor_id;sensor_type;location;lat;lon;timestamp;P1;durP1;ratioP1;P2;durP2;ratioP2
47433;SDS011;33184;48.774;8.918;2023-08-06T00:00:16;2.65;;;0.90;;
47433;SDS011;33184;48.774;8.918;2023-08-06T00:05:41;2.53;;;0.88;;
47433;SDS011;33184;48.774;8.918;2023-08-06T00:16:23;2.58;;;1.08;;
47433;SDS011;33184;48.774;8.918;2023-08-06T00:21:44;1.48;;;0.98;;
47433;SDS011;33184;48.774;8.918;2023-08-06T00:27:04;130.95;;;69.82;;
47433;SDS011;33184;48.774;8.918;2023-08-06T00:32:25;95.60;;;50.05;;
47433;SDS011;33184;48.774;8.918;2023-08-06T00:37:45;97.28;;;44.45;;
47433;SDS011;33184;48.774;8.918;2023-08-06T00:43:07;16.63;;;5.63;;
47433;SDS011;33184;48.774;8.918;2023-08-06T00:48:28;8.18;;;3.58;;
47433;SDS011;33184;48.774;8.918;2023-08-06T00:53:49;1.70;;;1.50;;
47433;SDS011;33184;48.774;8.918;2023-08-06T00:59:10;1.20;;;1.10;;
47433;SDS011;33184;48.774;8.918;2023-08-06T01:04:32;4.57;;;1.23;;
47433;SDS011;33184;48.774;8.918;2023-08-06T01:10:09;2.03;;;1.10;;
47433;SDS011;33184;48.774;8.918;2023-08-06T01:15:41;4.20;;;1.20;;
47433;SDS011;33184;48.774;8.918;2023-08-06T01:21:06;2.15;;;1.10;;
47433;SDS011;33184;48.774;8.918;2023-08-06T01:26:30;6.82;;;1.10;;
47433;SDS011;33184;48.774;8.918;2023-08-06T01:31:56;1.92;;;1.00;;
47433;SDS011;33184;48.774;8.918;2023-08-06T01:37:17;1.17;;;1.02;;
47433;SDS011;33184;48.774;8.918;2023-08-06T01:42:38;3.35;;;0.90;;
47433;SDS011;33184;48.774;8.918;2023-08-06T01:47:59;4.55;;;1.13;;
47433;SDS011;33184;48.774;8.918;2023-08-06T01:53:19;4.00;;;1.10;;
47433;SDS011;33184;48.774;8.918;2023-08-06T01:58:40;2.25;;;0.80;;
47433;SDS011;33184;48.774;8.918;2023-08-06T02:04:01;1.65;;;0.90;;
47433;SDS011;33184;48.774;8.918;2023-08-06T02:09:22;2.17;;;0.90;;
47433;SDS011;33184;48.774;8.918;2023-08-06T02:14:43;2.28;;;0.90;;
47433;SDS011;33184;48.774;8.918;2023-08-06T02:20:04;1.60;;;1.25;;
47433;SDS011;33184;48.774;8.918;2023-08-06T02:25:25;3.38;;;0.90;;
47433;SDS011;33184;48.774;8.918;2023-08-06T02:30:51;2.22;;;1.38;;
47433;SDS011;33184;48.774;8.918;2023-08-06T02:36:12;2.97;;;1.08;;
47433;SDS011;33184;48.774;8.918;2023-08-06T02:41:33;1.48;;;0.85;;
47433;SDS011;33184;48.774;8.918;2023-08-06T02:46:53;4.45;;;1.00;;
47433;SDS011;33184;48.774;8.918;2023-08-06T02:52:14;2.95;;;0.82;;
47433;SDS011;33184;48.774;8.918;2023-08-06T02:57:36;3.90;;;1.27;;
47433;SDS011;33184;48.774;8.918;2023-08-06T03:02:56;2.80;;;1.33;;
47433;SDS011;33184;48.774;8.918;2023-08-06T03:08:25;2.53;;;0.90;;
47433;SDS011;33184;48.774;8.918;2023-08-06T03:13:46;3.08;;;1.10;;
47433;SDS011;33184;48.774;8.918;2023-08-06T03:19:07;2.63;;;0.90;;
47433;SDS011;33184;48.774;8.918;2023-08-06T03:24:28;1.98;;;0.88;;
47433;SDS011;33184;48.774;8.918;2023-08-06T03:29:49;1.98;;;0.90;;
47433;SDS011;33184;48.774;8.918;2023-08-06T03:35:12;2.72;;;0.80;;
47433;SDS011;33184;48.774;8.918;2023-08-06T03:40:34;4.05;;;0.90;;
47433;SDS011;33184;48.774;8.918;2023-08-06T03:45:56;3.05;;;0.80;;
47433;SDS011;33184;48.774;8.918;2023-08-06T03:51:17;6.30;;;0.90;;
47433;SDS011;33184;48.774;8.918;2023-08-06T03:56:39;2.47;;;0.80;;
47433;SDS011;33184;48.774;8.918;2023-08-06T04:02:00;1.10;;;0.70;;
47433;SDS011;33184;48.774;8.918;2023-08-06T04:07:21;1.17;;;0.75;;
47433;SDS011;33184;48.774;8.918;2023-08-06T04:12:42;2.20;;;0.57;;
47433;SDS011;33184;48.774;8.918;2023-08-06T04:18:02;2.92;;;0.80;;
47433;SDS011;33184;48.774;8.918;2023-08-06T04:23:23;1.88;;;0.80;;
47433;SDS011;33184;48.774;8.918;2023-08-06T04:28:47;2.35;;;0.57;;
47433;SDS011;33184;48.774;8.918;2023-08-06T04:34:09;1.65;;;0.60;;
47433;SDS011;33184;48.774;8.918;2023-08-06T04:39:31;1.98;;;0.52;;
47433;SDS011;33184;48.774;8.918;2023-08-06T04:44:52;1.38;;;0.50;;
47433;SDS011;33184;48.774;8.918;2023-08-06T04:50:13;1.65;;;0.73;;
47433;SDS011;33184;48.774;8.918;2023-08-06T04:55:34;1.30;;;0.70;;
47433;SDS011;33184;48.774;8.918;2023-08-06T05:00:54;0.73;;;0.50;;
47433;SDS011;33184;48.774;8.918;2023-08-06T05:06:15;1.80;;;0.60;;
47433;SDS011;33184;48.774;8.918;2023-08-06T05:11:36;2.05;;;0.47;;
47433;SDS011;33184;48.774;8.918;2023-08-06T05:16:56;1.65;;;0.35;;
47433;SDS011;33184;48.774;8.918;2023-08-06T05:22:17;0.52;;;0.25;;
47433;SDS011;33184;48.774;8.918;2023-08-06T05:27:37;0.88;;;0.28;;
47433;SDS011;33184;48.774;8.918;2023-08-06T05:32:58;2.55;;;0.20;;
47433;SDS011;33184;48.774;8.918;2023-08-06T05:38:18;0.60;;;0.20;;
47433;SDS011;33184;48.774;8.918;2023-08-06T05:43:39;0.80;;;0.13;;
47433;SDS011;33184;48.774;8.918;2023-08-06T05:48:59;0.82;;;0.20;;
47433;SDS011;33184;48.774;8.918;2023-08-06T05:54:20;0.43;;;0.17;;
47433;SDS011;33184;48.774;8.918;2023-08-06T05:59:41;2.47;;;0.30;;
47433;SDS011;33184;48.774;8.918;2023-08-06T06:05:01;0.38;;;0.20;;
47433;SDS011;33184;48.774;8.918;2023-08-06T06:10:22;3.15;;;0.20;;
47433;SDS011;33184;48.774;8.918;2023-08-06T06:15:43;0.82;;;0.30;;
47433;SDS011;33184;48.774;8.918;2023-08-06T06:21:03;3.28;;;0.10;;
47433;SDS011;33184;48.774;8.918;2023-08-06T06:26:24;0.20;;;0.20;;
47433;SDS011;33184;48.774;8.918;2023-08-06T06:31:44;0.65;;;0.20;;
47433;SDS011;33184;48.774;8.918;2023-08-06T06:37:05;0.20;;;0.10;;
47433;SDS011;33184;48.774;8.918;2023-08-06T06:42:25;0.20;;;0.05;;
47433;SDS011;33184;48.774;8.918;2023-08-06T06:47:52;0.15;;;0.08;;
47433;SDS011;33184;48.774;8.918;2023-08-06T06:53:13;0.10;;;0.10;;
47433;SDS011;33184;48.774;8.918;2023-08-06T06:58:34;0.10;;;0.00;;
47433;SDS011;33184;48.774;8.918;2023-08-06T07:03:54;3.80;;;0.88;;
47433;SDS011;33184;48.774;8.918;2023-08-06T07:09:15;0.05;;;0.03;;
47433;SDS011;33184;48.774;8.918;2023-08-06T07:14:36;0.30;;;0.13;;
47433;SDS011;33184;48.774;8.918;2023-08-06T07:19:57;2.28;;;0.10;;
47433;SDS011;33184;48.774;8.918;2023-08-06T07:25:17;0.10;;;0.10;;
47433;SDS011;33184;48.774;8.918;2023-08-06T07:30:38;1.05;;;0.00;;
47433;SDS011;33184;48.774;8.918;2023-08-06T07:35:59;0.10;;;0.00;;
47433;SDS011;33184;48.774;8.918;2023-08-06T07:41:20;0.00;;;0.00;;
47433;SDS011;33184;48.774;8.918;2023-08-06T07:46:41;0.47;;;0.00;;
47433;SDS011;33184;48.774;8.918;2023-08-06T07:52:01;0.60;;;0.10;;
47433;SDS011;33184;48.774;8.918;2023-08-06T07:57:22;0.10;;;0.00;;
47433;SDS011;33184;48.774;8.918;2023-08-06T08:02:43;0.03;;;0.00;;
47433;SDS011;33184;48.774;8.918;2023-08-06T08:08:03;0.10;;;0.00;;
47433;SDS011;33184;48.774;8.918;2023-08-06T08:13:24;0.20;;;0.00;;
47433;SDS011;33184;48.774;8.918;2023-08-06T08:18:45;0.08;;;0.00;;
47433;SDS011;33184;48.774;8.918;2023-08-06T08:24:05;0.32;;;0.00;;
47433;SDS011;33184;48.774;8.918;2023-08-06T08:29:27;0.00;;;0.00;;
47433;SDS011;33184;48.774;8.918;2023-08-06T08:34:48;0.00;;;0.00;;
47433;SDS011;33184;48.774;8.918;2023-08-06T08:40:09;0.43;;;0.00;;
47433;SDS011;33184;48.774;8.918;2023-08-06T08:45:30;0.22;;;0.00;;
47433;SDS011;33184;48.774;8.918;2023-08-06T08:50:59;0.00;;;0.00;;
47433;SDS011;33184;48.774;8.918;2023-08-06T08:56:21;0.20;;;0.00;;
47433;SDS011;33184;48.774;8.918;2023-08-06T09:01:42;0.28;;;0.00;;
47433;SDS011;33184;48.774;8.918;2023-08-06T09:07:05;0.03;;;0.00;;
47433;SDS011;33184;48.774;8.918;2023-08-06T09:12:29;1.35;;;0.00;;
47433;SDS011;33184;48.774;8.918;2023-08-06T09:17:49;1.00;;;0.00;;
47433;SDS011;33184;48.774;8.918;2023-08-06T09:23:10;0.00;;;0.00;;
47433;SDS011;33184;48.774;8.918;2023-08-06T09:28:37;0.00;;;0.00;;
47433;SDS011;33184;48.774;8.918;2023-08-06T09:34:06;0.10;;;0.08;;
47433;SDS011;33184;48.774;8.918;2023-08-06T09:39:38;1.30;;;0.00;;
47433;SDS011;33184;48.774;8.918;2023-08-06T09:45:05;0.20;;;0.00;;
47433;SDS011;33184;48.774;8.918;2023-08-06T09:50:30;0.00;;;0.00;;
47433;SDS011;33184;48.774;8.918;2023-08-06T09:55:52;0.00;;;0.00;;
47433;SDS011;33184;48.774;8.918;2023-08-06T10:01:13;0.00;;;0.00;;
47433;SDS011;33184;48.774;8.918;2023-08-06T10:06:36;0.00;;;0.00;;
47433;SDS011;33184;48.774;8.918;2023-08-06T10:11:56;0.20;;;0.13;;
47433;SDS011;33184;48.774;8.918;2023-08-06T10:17:18;0.00;;;0.00;;
47433;SDS011;33184;48.774;8.918;2023-08-06T10:22:43;3.25;;;0.00;;
47433;SDS011;33184;48.774;8.918;2023-08-06T10:28:08;0.20;;;0.00;;
47433;SDS011;33184;48.774;8.918;2023-08-06T10:33:42;0.00;;;0.00;;
47433;SDS011;33184;48.774;8.918;2023-08-06T10:39:04;0.20;;;0.00;;
47433;SDS011;33184;48.774;8.918;2023-08-06T10:44:25;0.65;;;0.00;;
47433;SDS011;33184;48.774;8.918;2023-08-06T10:49:45;0.00;;;0.00;;
47433;SDS011;33184;48.774;8.918;2023-08-06T10:55:06;0.03;;;0.03;;
47433;SDS011;33184;48.774;8.918;2023-08-06T11:00:27;0.20;;;0.15;;
47433;SDS011;33184;48.774;8.918;2023-08-06T11:05:49;0.10;;;0.10;;
47433;SDS011;33184;48.774;8.918;2023-08-06T11:11:10;0.70;;;0.30;;
47433;SDS011;33184;48.774;8.918;2023-08-06T11:16:33;0.20;;;0.10;;
47433;SDS011;33184;48.774;8.918;2023-08-06T11:21:54;0.80;;;0.40;;
47433;SDS011;33184;48.774;8.918;2023-08-06T11:27:15;3.25;;;1.13;;
47433;SDS011;33184;48.774;8.918;2023-08-06T11:32:46;0.28;;;0.20;;
47433;SDS011;33184;48.774;8.918;2023-08-06T11:38:07;4.50;;;1.33;;
47433;SDS011;33184;48.774;8.918;2023-08-06T11:43:30;1.35;;;1.25;;
47433;SDS011;33184;48.774;8.918;2023-08-06T11:48:55;0.50;;;0.40;;
47433;SDS011;33184;48.774;8.918;2023-08-06T11:54:16;0.32;;;0.22;;
47433;SDS011;33184;48.774;8.918;2023-08-06T11:59:53;0.70;;;0.47;;
47433;SDS011;33184;48.774;8.918;2023-08-06T12:10:34;0.57;;;0.40;;
47433;SDS011;33184;48.774;8.918;2023-08-06T12:15:55;0.85;;;0.50;;
47433;SDS011;33184;48.774;8.918;2023-08-06T12:21:17;0.88;;;0.40;;
47433;SDS011;33184;48.774;8.918;2023-08-06T12:26:39;1.38;;;0.40;;
47433;SDS011;33184;48.774;8.918;2023-08-06T12:31:59;0.38;;;0.22;;
47433;SDS011;33184;48.774;8.918;2023-08-06T12:37:20;0.60;;;0.30;;
47433;SDS011;33184;48.774;8.918;2023-08-06T12:42:41;0.35;;;0.20;;
47433;SDS011;33184;48.774;8.918;2023-08-06T12:48:02;0.75;;;0.30;;
47433;SDS011;33184;48.774;8.918;2023-08-06T12:53:24;0.40;;;0.32;;
47433;SDS011;33184;48.774;8.918;2023-08-06T12:58:45;1.00;;;0.28;;
47433;SDS011;33184;48.774;8.918;2023-08-06T13:04:06;1.67;;;0.35;;
47433;SDS011;33184;48.774;8.918;2023-08-06T13:09:26;0.73;;;0.20;;
47433;SDS011;33184;48.774;8.918;2023-08-06T13:14:47;0.30;;;0.20;;
47433;SDS011;33184;48.774;8.918;2023-08-06T13:20:08;0.20;;;0.20;;
47433;SDS011;33184;48.774;8.918;2023-08-06T13:25:29;0.70;;;0.20;;
47433;SDS011;33184;48.774;8.918;2023-08-06T13:30:50;0.10;;;0.10;;
47433;SDS011;33184;48.774;8.918;2023-08-06T13:36:11;0.50;;;0.20;;
47433;SDS011;33184;48.774;8.918;2023-08-06T13:41:31;0.30;;;0.20;;
47433;SDS011;33184;48.774;8.918;2023-08-06T13:46:52;0.20;;;0.10;;
47433;SDS011;33184;48.774;8.918;2023-08-06T13:52:12;0.40;;;0.10;;
47433;SDS011;33184;48.774;8.918;2023-08-06T13:57:34;0.47;;;0.22;;
47433;SDS011;33184;48.774;8.918;2023-08-06T14:02:55;0.82;;;0.40;;
47433;SDS011;33184;48.774;8.918;2023-08-06T14:08:15;0.82;;;0.20;;
47433;SDS011;33184;48.774;8.918;2023-08-06T14:13:39;2.20;;;0.20;;
47433;SDS011;33184;48.774;8.918;2023-08-06T14:18:59;0.40;;;0.20;;
47433;SDS011;33184;48.774;8.918;2023-08-06T14:24:20;0.17;;;0.17;;
47433;SDS011;33184;48.774;8.918;2023-08-06T14:29:41;0.45;;;0.20;;
47433;SDS011;33184;48.774;8.918;2023-08-06T14:35:01;0.60;;;0.60;;
47433;SDS011;33184;48.774;8.918;2023-08-06T14:40:22;0.38;;;0.20;;
47433;SDS011;33184;48.774;8.918;2023-08-06T14:45:44;3.15;;;0.20;;
47433;SDS011;33184;48.774;8.918;2023-08-06T14:51:05;0.43;;;0.20;;
47433;SDS011;33184;48.774;8.918;2023-08-06T14:56:25;0.57;;;0.20;;
47433;SDS011;33184;48.774;8.918;2023-08-06T15:01:46;0.82;;;0.30;;
47433;SDS011;33184;48.774;8.918;2023-08-06T15:07:07;1.60;;;0.20;;
47433;SDS011;33184;48.774;8.918;2023-08-06T15:12:29;0.10;;;0.10;;
47433;SDS011;33184;48.774;8.918;2023-08-06T15:17:51;0.57;;;0.20;;
47433;SDS011;33184;48.774;8.918;2023-08-06T15:23:12;0.88;;;0.17;;
47433;SDS011;33184;48.774;8.918;2023-08-06T15:28:33;1.05;;;0.10;;
47433;SDS011;33184;48.774;8.918;2023-08-06T15:33:53;0.55;;;0.13;;
47433;SDS011;33184;48.774;8.918;2023-08-06T15:39:14;1.10;;;0.20;;
47433;SDS011;33184;48.774;8.918;2023-08-06T15:44:34;2.08;;;0.30;;
47433;SDS011;33184;48.774;8.918;2023-08-06T15:49:55;0.32;;;0.22;;
47433;SDS011;33184;48.774;8.918;2023-08-06T15:55:16;0.38;;;0.30;;
47433;SDS011;33184;48.774;8.918;2023-08-06T16:00:36;1.83;;;0.30;;
47433;SDS011;33184;48.774;8.918;2023-08-06T16:05:57;0.50;;;0.30;;
47433;SDS011;33184;48.774;8.918;2023-08-06T16:11:17;0.73;;;0.30;;
47433;SDS011;33184;48.774;8.918;2023-08-06T16:16:38;1.08;;;0.30;;
47433;SDS011;33184;48.774;8.918;2023-08-06T16:21:59;0.43;;;0.30;;
47433;SDS011;33184;48.774;8.918;2023-08-06T16:27:20;0.65;;;0.30;;
47433;SDS011;33184;48.774;8.918;2023-08-06T16:32:40;1.05;;;0.40;;
47433;SDS011;33184;48.774;8.918;2023-08-06T16:38:01;2.47;;;0.10;;
47433;SDS011;33184;48.774;8.918;2023-08-06T16:43:22;0.45;;;0.10;;
47433;SDS011;33184;48.774;8.918;2023-08-06T16:48:43;0.88;;;0.28;;
47433;SDS011;33184;48.774;8.918;2023-08-06T16:54:04;1.30;;;0.30;;
47433;SDS011;33184;48.774;8.918;2023-08-06T16:59:25;0.73;;;0.30;;
47433;SDS011;33184;48.774;8.918;2023-08-06T17:04:45;0.73;;;0.50;;
47433;SDS011;33184;48.774;8.918;2023-08-06T17:10:06;0.55;;;0.30;;
47433;SDS011;33184;48.774;8.918;2023-08-06T17:15:27;0.60;;;0.47;;
47433;SDS011;33184;48.774;8.918;2023-08-06T17:20:47;1.08;;;0.40;;
47433;SDS011;33184;48.774;8.918;2023-08-06T17:26:08;1.75;;;0.50;;
47433;SDS011;33184;48.774;8.918;2023-08-06T17:31:28;1.17;;;0.50;;
47433;SDS011;33184;48.774;8.918;2023-08-06T17:36:49;1.30;;;0.50;;
47433;SDS011;33184;48.774;8.918;2023-08-06T17:42:09;0.65;;;0.60;;
47433;SDS011;33184;48.774;8.918;2023-08-06T17:47:30;1.02;;;0.40;;
47433;SDS011;33184;48.774;8.918;2023-08-06T17:52:51;1.17;;;0.50;;
47433;SDS011;33184;48.774;8.918;2023-08-06T17:58:11;0.88;;;0.57;;
47433;SDS011;33184;48.774;8.918;2023-08-06T18:03:32;3.45;;;0.40;;
47433;SDS011;33184;48.774;8.918;2023-08-06T18:08:52;1.20;;;0.60;;
47433;SDS011;33184;48.774;8.918;2023-08-06T18:14:13;1.88;;;1.35;;
47433;SDS011;33184;48.774;8.918;2023-08-06T18:19:34;1.42;;;0.50;;
47433;SDS011;33184;48.774;8.918;2023-08-06T18:24:54;0.52;;;0.43;;
47433;SDS011;33184;48.774;8.918;2023-08-06T18:30:17;1.35;;;0.60;;
47433;SDS011;33184;48.774;8.918;2023-08-06T18:35:39;1.13;;;0.70;;
47433;SDS011;33184;48.774;8.918;2023-08-06T18:41:01;3.33;;;0.60;;
47433;SDS011;33184;48.774;8.918;2023-08-06T18:46:22;2.30;;;0.75;;
47433;SDS011;33184;48.774;8.918;2023-08-06T18:51:42;2.90;;;0.73;;
47433;SDS011;33184;48.774;8.918;2023-08-06T18:57:03;2.95;;;0.60;;
47433;SDS011;33184;48.774;8.918;2023-08-06T19:02:24;1.38;;;0.50;;
47433;SDS011;33184;48.774;8.918;2023-08-06T19:07:44;0.70;;;0.50;;
47433;SDS011;33184;48.774;8.918;2023-08-06T19:13:09;1.95;;;0.70;;
47433;SDS011;33184;48.774;8.918;2023-08-06T19:18:31;2.78;;;0.70;;
47433;SDS011;33184;48.774;8.918;2023-08-06T19:23:51;1.10;;;0.60;;
47433;SDS011;33184;48.774;8.918;2023-08-06T19:29:12;1.35;;;0.50;;
47433;SDS011;33184;48.774;8.918;2023-08-06T19:34:34;0.85;;;0.60;;
47433;SDS011;33184;48.774;8.918;2023-08-06T19:39:54;1.15;;;0.40;;
47433;SDS011;33184;48.774;8.918;2023-08-06T19:45:15;1.30;;;0.60;;
47433;SDS011;33184;48.774;8.918;2023-08-06T19:50:36;1.38;;;0.45;;
47433;SDS011;33184;48.774;8.918;2023-08-06T19:55:57;1.27;;;0.40;;
47433;SDS011;33184;48.774;8.918;2023-08-06T20:01:18;0.75;;;0.40;;
47433;SDS011;33184;48.774;8.918;2023-08-06T20:06:38;6.82;;;0.57;;
47433;SDS011;33184;48.774;8.918;2023-08-06T20:12:01;1.48;;;0.40;;
47433;SDS011;33184;48.774;8.918;2023-08-06T20:17:21;1.10;;;0.40;;
47433;SDS011;33184;48.774;8.918;2023-08-06T20:22:43;3.00;;;0.50;;
47433;SDS011;33184;48.774;8.918;2023-08-06T20:28:05;2.53;;;0.60;;
47433;SDS011;33184;48.774;8.918;2023-08-06T20:33:26;0.80;;;0.40;;
47433;SDS011;33184;48.774;8.918;2023-08-06T20:38:46;1.92;;;0.50;;
47433;SDS011;33184;48.774;8.918;2023-08-06T20:44:07;0.50;;;0.50;;
47433;SDS011;33184;48.774;8.918;2023-08-06T20:49:27;1.50;;;0.38;;
47433;SDS011;33184;48.774;8.918;2023-08-06T20:54:48;0.55;;;0.43;;
47433;SDS011;33184;48.774;8.918;2023-08-06T21:00:09;2.75;;;0.30;;
47433;SDS011;33184;48.774;8.918;2023-08-06T21:05:30;0.60;;;0.38;;
47433;SDS011;33184;48.774;8.918;2023-08-06T21:10:51;0.70;;;0.40;;
47433;SDS011;33184;48.774;8.918;2023-08-06T21:16:11;0.52;;;0.30;;
47433;SDS011;33184;48.774;8.918;2023-08-06T21:21:32;2.63;;;0.40;;
47433;SDS011;33184;48.774;8.918;2023-08-06T21:26:53;0.47;;;0.40;;
47433;SDS011;33184;48.774;8.918;2023-08-06T21:32:14;0.40;;;0.30;;
47433;SDS011;33184;48.774;8.918;2023-08-06T21:37:34;0.70;;;0.47;;
47433;SDS011;33184;48.774;8.918;2023-08-06T21:42:55;1.40;;;0.40;;
47433;SDS011;33184;48.774;8.918;2023-08-06T21:48:15;4.55;;;1.90;;
47433;SDS011;33184;48.774;8.918;2023-08-06T21:53:37;0.70;;;0.40;;
47433;SDS011;33184;48.774;8.918;2023-08-06T21:58:58;1.13;;;0.45;;
47433;SDS011;33184;48.774;8.918;2023-08-06T22:04:19;0.63;;;0.40;;
47433;SDS011;33184;48.774;8.918;2023-08-06T22:09:40;0.50;;;0.40;;
47433;SDS011;33184;48.774;8.918;2023-08-06T22:15:00;2.13;;;0.40;;
47433;SDS011;33184;48.774;8.918;2023-08-06T22:20:21;1.05;;;0.50;;
47433;SDS011;33184;48.774;8.918;2023-08-06T22:25:42;0.52;;;0.40;;
47433;SDS011;33184;48.774;8.918;2023-08-06T22:31:03;2.35;;;0.52;;
47433;SDS011;33184;48.774;8.918;2023-08-06T22:36:24;3.05;;;0.50;;
47433;SDS011;33184;48.774;8.918;2023-08-06T22:41:45;3.88;;;0.68;;
47433;SDS011;33184;48.774;8.918;2023-08-06T22:47:06;1.80;;;0.55;;
47433;SDS011;33184;48.774;8.918;2023-08-06T22:52:27;3.33;;;0.43;;
47433;SDS011;33184;48.774;8.918;2023-08-06T22:57:48;1.33;;;0.50;;
47433;SDS011;33184;48.774;8.918;2023-08-06T23:03:08;0.95;;;0.45;;
47433;SDS011;33184;48.774;8.918;2023-08-06T23:08:29;0.95;;;0.52;;
47433;SDS011;33184;48.774;8.918;2023-08-06T23:13:50;1.05;;;0.55;;
47433;SDS011;33184;48.774;8.918;2023-08-06T23:19:10;1.17;;;0.60;;
47433;SDS011;33184;48.774;8.918;2023-08-06T23:24:31;4.35;;;0.70;;
47433;SDS011;33184;48.774;8.918;2023-08-06T23:29:51;1.77;;;0.73;;
47433;SDS011;33184;48.774;8.918;2023-08-06T23:35:12;6.05;;;0.80;;
47433;SDS011;33184;48.774;8.918;2023-08-06T23:40:32;2.63;;;0.70;;
47433;SDS011;33184;48.774;8.918;2023-08-06T23:45:53;2.90;;;0.50;;
47433;SDS011;33184;48.774;8.918;2023-08-06T23:51:16;2.40;;;1.25;;
47433;SDS011;33184;48.774;8.918;2023-08-06T23:56:36;5.00;;;0.70;;
